Time;durP1;ratioP1;P1;durP2;ratioP2;P2;SDS_P1;SDS_P2;PMS_P1;PMS_P2;Temp;Humidity;BMP_temperature;BMP_pressure;BME280_temperature;BME280_humidity;BME280_pressure;Samples;Min_cycle;Max_cycle;Signal;HPM_P1;HPM_P2
2021/10/12 00:00:24;;;;;;;;;2.00;0.00;;;;;;;;2773185;51;9071;-67
2021/10/12 00:02:50;;;;;;;;;0.00;0.00;;;;;;;;2773257;51;8763;-68
2021/10/12 00:05:16;;;;;;;;;0.00;0.00;;;;;;;;2773465;51;8766;-67
2021/10/12 00:07:43;;;;;;;;;0.00;0.00;;;;;;;;2773454;51;8779;-67
2021/10/12 00:10:09;;;;;;;;;0.00;0.00;;;;;;;;2773187;51;8767;-68
2021/10/12 00:12:35;;;;;;;;;0.00;0.00;;;;;;;;2773485;51;8782;-68
2021/10/12 00:15:00;;;;;;;;;0.00;0.00;;;;;;;;2773504;51;9473;-67
2021/10/12 00:17:26;;;;;;;;;0.50;0.25;;;;;;;;2773638;51;8830;-67
2021/10/12 00:19:51;;;;;;;;;0.00;0.00;;;;;;;;2773204;51;8783;-67
2021/10/12 00:22:17;;;;;;;;;1.00;0.50;;;;;;;;2773561;51;8799;-67
2021/10/12 00:24:43;;;;;;;;;0.00;0.00;;;;;;;;2773203;51;8873;-67
2021/10/12 00:27:08;;;;;;;;;0.00;0.00;;;;;;;;2772834;51;8887;-68
2021/10/12 00:29:34;;;;;;;;;0.00;0.00;;;;;;;;2773424;51;8771;-67
2021/10/12 00:32:00;;;;;;;;;0.50;0.25;;;;;;;;2773334;51;8774;-68
2021/10/12 00:34:25;;;;;;;;;0.20;0.20;;;;;;;;2773560;51;8767;-68
2021/10/12 00:36:51;;;;;;;;;0.00;0.00;;;;;;;;2773314;51;8807;-67
2021/10/12 00:39:17;;;;;;;;;1.50;0.75;;;;;;;;2773296;51;8779;-66
2021/10/12 00:41:43;;;;;;;;;0.60;0.60;;;;;;;;2773267;51;8785;-66
2021/10/12 00:44:08;;;;;;;;;0.00;0.00;;;;;;;;2773364;51;8771;-67
2021/10/12 00:46:34;;;;;;;;;0.25;0.00;;;;;;;;2773136;51;8782;-67
2021/10/12 00:49:00;;;;;;;;;0.00;0.00;;;;;;;;2773262;51;8763;-66
2021/10/12 00:51:26;;;;;;;;;0.50;0.50;;;;;;;;2773440;51;8782;-67
2021/10/12 00:53:52;;;;;;;;;0.00;0.00;;;;;;;;2773559;51;8775;-68
2021/10/12 00:56:19;;;;;;;;;1.00;1.00;;;;;;;;2772990;51;8751;-67
2021/10/12 00:58:45;;;;;;;;;0.00;0.00;;;;;;;;2773097;51;8807;-68
2021/10/12 01:01:11;;;;;;;;;0.60;0.60;;;;;;;;2773074;51;8779;-67
2021/10/12 01:03:37;;;;;;;;;0.00;0.00;;;;;;;;2772961;51;8800;-67
2021/10/12 01:06:03;;;;;;;;;2.00;0.50;;;;;;;;2773254;51;8759;-67
2021/10/12 01:08:29;;;;;;;;;0.00;0.00;;;;;;;;2773250;51;8818;-67
2021/10/12 01:10:56;;;;;;;;;1.00;1.00;;;;;;;;2773303;51;8794;-67
2021/10/12 01:13:22;;;;;;;;;0.80;0.40;;;;;;;;2773493;51;8779;-68
2021/10/12 01:15:49;;;;;;;;;0.00;0.00;;;;;;;;2772995;51;8778;-68
2021/10/12 01:18:15;;;;;;;;;1.00;0.00;;;;;;;;2772957;51;8795;-68
2021/10/12 01:20:41;;;;;;;;;0.00;0.00;;;;;;;;2773223;51;8786;-67
2021/10/12 01:23:06;;;;;;;;;0.20;0.20;;;;;;;;2773003;51;8767;-68
2021/10/12 01:25:32;;;;;;;;;0.25;0.25;;;;;;;;2773151;51;8782;-67
2021/10/12 01:27:58;;;;;;;;;0.00;0.00;;;;;;;;2772898;51;8771;-66
2021/10/12 01:30:24;;;;;;;;;0.00;0.00;;;;;;;;2773206;51;9841;-67
2021/10/12 01:32:50;;;;;;;;;0.00;0.00;;;;;;;;2772942;51;8774;-68
2021/10/12 01:35:16;;;;;;;;;1.00;1.00;;;;;;;;2773194;51;8782;-67
2021/10/12 01:37:42;;;;;;;;;0.00;0.00;;;;;;;;2772474;51;9490;-68
2021/10/12 01:40:08;;;;;;;;;0.00;0.00;;;;;;;;2772853;51;8762;-66
2021/10/12 01:42:34;;;;;;;;;0.00;0.00;;;;;;;;2773003;51;8771;-68
2021/10/12 01:45:01;;;;;;;;;0.00;0.00;;;;;;;;2772877;51;8778;-67
2021/10/12 01:47:28;;;;;;;;;0.00;0.00;;;;;;;;2772848;51;8767;-67
2021/10/12 01:49:54;;;;;;;;;2.40;0.00;;;;;;;;2773382;51;8779;-66
2021/10/12 01:52:20;;;;;;;;;1.75;0.00;;;;;;;;2772830;51;8878;-67
2021/10/12 01:54:46;;;;;;;;;0.00;0.00;;;;;;;;2772752;51;11419;-67
2021/10/12 01:57:11;;;;;;;;;0.00;0.00;;;;;;;;2772723;51;8892;-68
2021/10/12 01:59:37;;;;;;;;;0.00;0.00;;;;;;;;2772718;51;8767;-67
2021/10/12 02:02:02;;;;;;;;;0.00;0.00;;;;;;;;2772345;51;8774;-67
2021/10/12 02:04:28;;;;;;;;;0.00;0.00;;;;;;;;2773001;51;8881;-68
2021/10/12 02:06:54;;;;;;;;;0.00;0.00;;;;;;;;2772502;51;8754;-67
2021/10/12 02:09:20;;;;;;;;;1.00;0.00;;;;;;;;2772692;51;9798;-66
2021/10/12 02:11:46;;;;;;;;;0.00;0.00;;;;;;;;2772723;51;10032;-67
2021/10/12 02:14:12;;;;;;;;;1.00;0.00;;;;;;;;2772855;51;8754;-67
2021/10/12 02:16:38;;;;;;;;;0.00;0.00;;;;;;;;2773200;51;9451;-67
2021/10/12 02:19:03;;;;;;;;;1.00;1.00;;;;;;;;2773762;51;8798;-68
2021/10/12 02:21:29;;;;;;;;;0.00;0.00;;;;;;;;2773833;51;8790;-67
2021/10/12 02:23:55;;;;;;;;;0.00;0.00;;;;;;;;2773677;51;8766;-66
2021/10/12 02:26:20;;;;;;;;;0.50;0.50;;;;;;;;2773601;51;8859;-68
2021/10/12 02:28:46;;;;;;;;;1.00;1.00;;;;;;;;2773637;51;8771;-67
2021/10/12 02:31:12;;;;;;;;;0.00;0.00;;;;;;;;2778468;51;8767;-68
2021/10/12 02:33:37;;;;;;;;;0.00;0.00;;;;;;;;2773665;51;8897;-68
2021/10/12 02:36:03;;;;;;;;;0.00;0.00;;;;;;;;2773720;51;8771;-68
2021/10/12 02:38:28;;;;;;;;;1.00;1.00;;;;;;;;2773589;51;8798;-66
2021/10/12 02:40:55;;;;;;;;;0.20;0.20;;;;;;;;2773550;51;9450;-67
2021/10/12 02:43:21;;;;;;;;;0.00;0.00;;;;;;;;2773948;51;8766;-65
2021/10/12 02:45:47;;;;;;;;;1.00;0.00;;;;;;;;2773534;51;8779;-66
2021/10/12 02:48:13;;;;;;;;;3.40;2.80;;;;;;;;2773490;51;8885;-67
2021/10/12 02:50:40;;;;;;;;;2.00;1.00;;;;;;;;2773539;51;8784;-67
2021/10/12 02:53:05;;;;;;;;;0.00;0.00;;;;;;;;2773481;51;8885;-68
2021/10/12 02:55:31;;;;;;;;;3.75;1.00;;;;;;;;2773495;51;8766;-67
2021/10/12 02:57:56;;;;;;;;;1.00;1.00;;;;;;;;2773516;51;8811;-67
2021/10/12 03:00:22;;;;;;;;;1.00;1.00;;;;;;;;2773411;51;8819;-67
2021/10/12 03:02:48;;;;;;;;;0.75;0.75;;;;;;;;2773701;51;8782;-67
2021/10/12 03:05:13;;;;;;;;;0.00;0.00;;;;;;;;2773481;51;8775;-68
2021/10/12 03:07:39;;;;;;;;;0.25;0.25;;;;;;;;2773542;51;9416;-65
2021/10/12 03:10:06;;;;;;;;;2.00;0.40;;;;;;;;2773304;51;9034;-68
2021/10/12 03:12:31;;;;;;;;;0.00;0.00;;;;;;;;2773416;51;8786;-67
2021/10/12 03:14:58;;;;;;;;;0.00;0.00;;;;;;;;2778289;51;8874;-66
2021/10/12 03:17:23;;;;;;;;;0.00;0.00;;;;;;;;2773517;51;8799;-68
2021/10/12 03:19:49;;;;;;;;;0.00;0.00;;;;;;;;2773747;51;8807;-67
2021/10/12 03:22:15;;;;;;;;;1.25;0.00;;;;;;;;2773966;51;8775;-68
2021/10/12 03:24:41;;;;;;;;;0.00;0.00;;;;;;;;2773623;51;8771;-68
2021/10/12 03:27:08;;;;;;;;;0.00;0.00;;;;;;;;2773160;51;8794;-68
2021/10/12 03:29:33;;;;;;;;;0.00;0.00;;;;;;;;2773057;51;8771;-68
2021/10/12 03:31:59;;;;;;;;;0.00;0.00;;;;;;;;2773468;51;8811;-67
2021/10/12 03:34:29;;;;;;;;;0.00;0.00;;;;;;;;2778247;51;8774;-66
2021/10/12 03:36:55;;;;;;;;;0.00;0.00;;;;;;;;2773907;51;8775;-65
2021/10/12 03:39:21;;;;;;;;;0.80;0.00;;;;;;;;2778093;51;8786;-67
2021/10/12 03:41:47;;;;;;;;;1.00;0.00;;;;;;;;2773297;51;8787;-68
2021/10/12 03:44:12;;;;;;;;;0.00;0.00;;;;;;;;2777946;51;8802;-67
2021/10/12 03:46:38;;;;;;;;;0.00;0.00;;;;;;;;2773382;51;8787;-67
2021/10/12 03:49:04;;;;;;;;;0.00;0.00;;;;;;;;2778073;51;8763;-67
2021/10/12 03:51:29;;;;;;;;;0.00;0.00;;;;;;;;2773367;51;8894;-66
2021/10/12 03:53:55;;;;;;;;;0.00;0.00;;;;;;;;2777967;51;8787;-66
2021/10/12 03:56:20;;;;;;;;;2.00;1.00;;;;;;;;2773675;51;8848;-68
2021/10/12 03:58:46;;;;;;;;;0.00;0.00;;;;;;;;2773282;51;8803;-68
2021/10/12 04:01:11;;;;;;;;;0.50;0.50;;;;;;;;2773414;51;8798;-67
2021/10/12 04:03:37;;;;;;;;;1.00;1.00;;;;;;;;2773359;51;8774;-69
2021/10/12 04:06:03;;;;;;;;;0.00;0.00;;;;;;;;2773616;51;8868;-68
2021/10/12 04:08:28;;;;;;;;;1.00;1.00;;;;;;;;2773114;51;8767;-68
2021/10/12 04:10:55;;;;;;;;;1.00;1.00;;;;;;;;2773153;51;8773;-68
2021/10/12 04:13:21;;;;;;;;;0.00;0.00;;;;;;;;2773567;51;8767;-68
2021/10/12 04:15:46;;;;;;;;;0.25;0.25;;;;;;;;2778002;51;8759;-70
2021/10/12 04:18:12;;;;;;;;;0.00;0.00;;;;;;;;2773405;51;8814;-67
2021/10/12 04:20:37;;;;;;;;;0.00;0.00;;;;;;;;2773284;51;8782;-69
2021/10/12 04:23:07;;;;;;;;;0.00;0.00;;;;;;;;2773494;51;8797;-68
2021/10/12 04:25:32;;;;;;;;;0.00;0.00;;;;;;;;2773389;51;9007;-68
2021/10/12 04:27:58;;;;;;;;;0.00;0.00;;;;;;;;2774955;51;8777;-69
2021/10/12 04:30:24;;;;;;;;;0.00;0.00;;;;;;;;2773898;51;8856;-69
2021/10/12 04:32:49;;;;;;;;;0.75;0.75;;;;;;;;2779208;51;8760;-68
2021/10/12 04:35:15;;;;;;;;;1.25;0.25;;;;;;;;2776754;51;8766;-69
2021/10/12 04:37:41;;;;;;;;;0.00;0.00;;;;;;;;2773159;51;8787;-68
2021/10/12 04:40:07;;;;;;;;;2.00;0.75;;;;;;;;2772863;51;8778;-68
2021/10/12 04:42:34;;;;;;;;;2.00;0.50;;;;;;;;2773081;51;8791;-68
2021/10/12 04:44:59;;;;;;;;;0.00;0.00;;;;;;;;2778290;51;8776;-68
2021/10/12 04:47:25;;;;;;;;;0.00;0.00;;;;;;;;2779181;51;8796;-68
2021/10/12 04:49:50;;;;;;;;;0.25;0.25;;;;;;;;2779282;51;8791;-68
2021/10/12 04:52:16;;;;;;;;;1.00;1.00;;;;;;;;2779185;51;8771;-69
2021/10/12 04:54:42;;;;;;;;;0.00;0.00;;;;;;;;2779142;51;8772;-67
2021/10/12 04:57:07;;;;;;;;;0.60;0.60;;;;;;;;2778974;51;8861;-68
2021/10/12 04:59:33;;;;;;;;;0.25;0.25;;;;;;;;2778944;51;9457;-70
2021/10/12 05:01:59;;;;;;;;;0.25;0.25;;;;;;;;2773807;51;8771;-69
2021/10/12 05:04:24;;;;;;;;;1.00;1.00;;;;;;;;2773045;51;8787;-67
2021/10/12 05:06:50;;;;;;;;;1.00;1.00;;;;;;;;2773121;51;8771;-68
2021/10/12 05:09:15;;;;;;;;;0.00;0.00;;;;;;;;2773060;51;8787;-66
2021/10/12 05:11:41;;;;;;;;;2.00;1.00;;;;;;;;2773249;51;8806;-68
2021/10/12 05:14:07;;;;;;;;;2.00;1.00;;;;;;;;2772984;51;8778;-67
2021/10/12 05:16:33;;;;;;;;;0.00;0.00;;;;;;;;2773132;51;8789;-68
2021/10/12 05:19:00;;;;;;;;;1.20;0.20;;;;;;;;2772837;51;8803;-68
2021/10/12 05:21:29;;;;;;;;;1.00;0.40;;;;;;;;2772937;51;8890;-69
2021/10/12 05:23:55;;;;;;;;;1.00;0.00;;;;;;;;2772866;51;8907;-68
2021/10/12 05:26:22;;;;;;;;;0.00;0.00;;;;;;;;2772845;51;8898;-69
2021/10/12 05:28:51;;;;;;;;;0.00;0.00;;;;;;;;2773000;51;8888;-69
2021/10/12 05:31:20;;;;;;;;;0.40;0.00;;;;;;;;2772874;51;9385;-69
2021/10/12 05:33:46;;;;;;;;;0.40;0.40;;;;;;;;2772841;51;8790;-68
2021/10/12 05:36:12;;;;;;;;;0.00;0.00;;;;;;;;2778238;51;8769;-67
2021/10/12 05:38:38;;;;;;;;;0.75;0.75;;;;;;;;2779037;51;11417;-68
2021/10/12 05:41:04;;;;;;;;;1.00;1.00;;;;;;;;2779140;51;8858;-68
2021/10/12 05:43:30;;;;;;;;;1.00;1.00;;;;;;;;2779038;51;8768;-67
2021/10/12 05:45:55;;;;;;;;;2.00;1.00;;;;;;;;2778895;51;8772;-69
2021/10/12 05:48:21;;;;;;;;;0.00;0.00;;;;;;;;2778830;51;8789;-68
2021/10/12 05:50:47;;;;;;;;;0.00;0.00;;;;;;;;2778858;51;8788;-68
2021/10/12 05:53:28;;;;;;;;;0.00;0.00;;;;;;;;2780370;51;8878;-68
2021/10/12 05:58:35;;;;;;;;;0.00;0.00;;;;;;;;2779853;51;8808;-69
2021/10/12 06:01:02;;;;;;;;;0.00;0.00;;;;;;;;2779909;51;8776;-71
2021/10/12 06:03:27;;;;;;;;;1.00;1.00;;;;;;;;2779775;51;8764;-68
2021/10/12 06:05:53;;;;;;;;;0.00;0.00;;;;;;;;2779900;51;8828;-70
2021/10/12 06:08:19;;;;;;;;;0.00;0.00;;;;;;;;2779221;51;8780;-68
2021/10/12 06:10:45;;;;;;;;;0.20;0.20;;;;;;;;2779678;51;8760;-70
2021/10/12 06:13:11;;;;;;;;;0.25;0.25;;;;;;;;2780181;51;9406;-69
2021/10/12 06:15:37;;;;;;;;;1.00;1.00;;;;;;;;2780074;51;8809;-69
2021/10/12 06:18:03;;;;;;;;;0.00;0.00;;;;;;;;2779755;51;9079;-69
2021/10/12 06:20:28;;;;;;;;;0.00;0.00;;;;;;;;2779701;51;8866;-70
2021/10/12 06:22:54;;;;;;;;;0.00;0.00;;;;;;;;2779876;51;8782;-72
2021/10/12 06:25:20;;;;;;;;;0.00;0.00;;;;;;;;2779836;51;8871;-68
2021/10/12 06:27:45;;;;;;;;;0.00;0.00;;;;;;;;2779693;51;8795;-69
2021/10/12 06:30:12;;;;;;;;;0.00;0.00;;;;;;;;2780030;51;8808;-69
2021/10/12 06:32:38;;;;;;;;;0.80;0.00;;;;;;;;2780013;51;8772;-69
2021/10/12 06:35:04;;;;;;;;;0.60;0.00;;;;;;;;2777152;51;8786;-68
2021/10/12 06:37:30;;;;;;;;;0.00;0.00;;;;;;;;2773989;51;8815;-73
2021/10/12 06:39:55;;;;;;;;;0.00;0.00;;;;;;;;2773712;51;8785;-69
2021/10/12 06:42:21;;;;;;;;;1.00;1.00;;;;;;;;2773574;51;8778;-71
2021/10/12 06:44:46;;;;;;;;;0.00;0.00;;;;;;;;2773601;51;8762;-68
2021/10/12 06:47:12;;;;;;;;;0.50;0.50;;;;;;;;2773468;51;8802;-69
2021/10/12 06:49:38;;;;;;;;;2.00;2.00;;;;;;;;2773457;51;8775;-68
2021/10/12 06:52:04;;;;;;;;;0.20;0.20;;;;;;;;2773502;51;8876;-69
2021/10/12 06:54:29;;;;;;;;;2.00;1.00;;;;;;;;2773480;51;8771;-69
2021/10/12 06:56:58;;;;;;;;;1.00;1.00;;;;;;;;2773416;51;8763;-67
2021/10/12 06:59:24;;;;;;;;;0.20;0.00;;;;;;;;2773344;51;8802;-69
2021/10/12 07:01:50;;;;;;;;;0.00;0.00;;;;;;;;2773236;51;8865;-70
2021/10/12 07:04:16;;;;;;;;;0.00;0.00;;;;;;;;2773452;51;8767;-69
2021/10/12 07:06:41;;;;;;;;;0.00;0.00;;;;;;;;2773240;51;9025;-68
2021/10/12 07:09:07;;;;;;;;;0.00;0.00;;;;;;;;2773502;51;8790;-68
2021/10/12 07:11:32;;;;;;;;;0.00;0.00;;;;;;;;2773428;51;8803;-69
2021/10/12 07:13:58;;;;;;;;;0.00;0.00;;;;;;;;2773686;51;8906;-69
2021/10/12 07:16:24;;;;;;;;;0.00;0.00;;;;;;;;2774055;51;8789;-69
2021/10/12 07:18:50;;;;;;;;;0.00;0.00;;;;;;;;2773715;51;11454;-69
2021/10/12 07:21:16;;;;;;;;;0.00;0.00;;;;;;;;2773886;51;8770;-69
2021/10/12 07:23:42;;;;;;;;;0.00;0.00;;;;;;;;2773760;51;8793;-68
2021/10/12 07:26:07;;;;;;;;;2.50;2.50;;;;;;;;2773449;51;8763;-69
2021/10/12 07:28:33;;;;;;;;;0.00;0.00;;;;;;;;2773350;51;8787;-69
2021/10/12 07:31:03;;;;;;;;;0.00;0.00;;;;;;;;2773452;51;8778;-69
2021/10/12 07:33:29;;;;;;;;;0.80;0.80;;;;;;;;2773732;51;8783;-68
2021/10/12 07:35:54;;;;;;;;;1.00;1.00;;;;;;;;2778032;51;8887;-68
2021/10/12 07:38:20;;;;;;;;;0.00;0.00;;;;;;;;2779613;51;8796;-68
2021/10/12 07:40:45;;;;;;;;;1.25;1.00;;;;;;;;2779254;51;8781;-70
2021/10/12 07:43:11;;;;;;;;;1.50;1.00;;;;;;;;2779531;51;8776;-70
2021/10/12 07:45:36;;;;;;;;;1.00;1.00;;;;;;;;2779734;51;8790;-68
2021/10/12 07:48:02;;;;;;;;;1.00;1.00;;;;;;;;2779445;51;8776;-69
2021/10/12 07:50:28;;;;;;;;;2.50;1.00;;;;;;;;2779131;51;8932;-69
2021/10/12 07:52:53;;;;;;;;;1.00;1.00;;;;;;;;2779243;51;8784;-69
2021/10/12 07:57:57;;;;;;;;;0.40;0.00;;;;;;;;2779419;51;8799;-68
2021/10/12 08:00:25;;;;;;;;;0.00;0.00;;;;;;;;2779241;51;8768;-69
2021/10/12 08:02:51;;;;;;;;;2.20;1.00;;;;;;;;2779559;51;8761;-71
2021/10/12 08:05:17;;;;;;;;;2.20;2.00;;;;;;;;2779222;51;8868;-69
2021/10/12 08:07:42;;;;;;;;;1.00;1.00;;;;;;;;2779397;51;8768;-69
2021/10/12 08:10:09;;;;;;;;;0.50;0.50;;;;;;;;2779232;51;8881;-69
2021/10/12 08:12:35;;;;;;;;;0.20;0.20;;;;;;;;2779469;51;8792;-67
2021/10/12 08:15:01;;;;;;;;;0.25;0.25;;;;;;;;2779115;51;8764;-69
2021/10/12 08:17:26;;;;;;;;;0.50;0.50;;;;;;;;2779374;51;8788;-69
2021/10/12 08:19:52;;;;;;;;;1.00;0.00;;;;;;;;2779519;51;10212;-68
2021/10/12 08:22:18;;;;;;;;;0.00;0.00;;;;;;;;2779201;51;9425;-69
2021/10/12 08:24:43;;;;;;;;;0.00;0.00;;;;;;;;2779295;51;8868;-68
2021/10/12 08:27:09;;;;;;;;;1.00;1.00;;;;;;;;2779279;51;8768;-70
2021/10/12 08:29:34;;;;;;;;;0.00;0.00;;;;;;;;2779134;51;9449;-70
2021/10/12 08:32:00;;;;;;;;;0.00;0.00;;;;;;;;2779151;51;8843;-69
2021/10/12 08:34:25;;;;;;;;;0.00;0.00;;;;;;;;2778217;51;8770;-68
2021/10/12 08:36:51;;;;;;;;;0.25;0.25;;;;;;;;2773082;51;8766;-68
2021/10/12 08:39:18;;;;;;;;;1.00;1.00;;;;;;;;2772977;51;8839;-70
2021/10/12 08:41:51;;;;;;;;;1.00;1.00;;;;;;;;2773172;51;11429;-69
2021/10/12 08:44:16;;;;;;;;;0.00;0.00;;;;;;;;2773442;51;8779;-70
2021/10/12 08:46:42;;;;;;;;;0.00;0.00;;;;;;;;2773201;51;8782;-69
2021/10/12 08:49:10;;;;;;;;;1.00;1.00;;;;;;;;2773149;51;8771;-70
2021/10/12 08:51:35;;;;;;;;;1.40;1.00;;;;;;;;2773209;51;8778;-70
2021/10/12 08:54:01;;;;;;;;;0.00;0.00;;;;;;;;2773028;51;8774;-70
2021/10/12 08:56:27;;;;;;;;;0.75;0.75;;;;;;;;2773121;51;8779;-72
2021/10/12 08:58:52;;;;;;;;;1.00;1.00;;;;;;;;2772725;51;8817;-70
2021/10/12 09:01:18;;;;;;;;;0.00;0.00;;;;;;;;2773163;51;8790;-73
2021/10/12 09:04:07;;;;;;;;;1.00;1.00;;;;;;;;2773274;51;8787;-73
2021/10/12 09:06:34;;;;;;;;;0.00;0.00;;;;;;;;2773291;51;8778;-69
2021/10/12 09:09:02;;;;;;;;;0.60;0.60;;;;;;;;2772925;51;8782;-71
2021/10/12 09:11:29;;;;;;;;;0.00;0.00;;;;;;;;2773166;51;8921;-68
2021/10/12 09:14:04;;;;;;;;;0.20;0.20;;;;;;;;2773156;51;8771;-70
2021/10/12 09:16:35;;;;;;;;;2.00;1.00;;;;;;;;2773052;51;8755;-72
2021/10/12 09:19:02;;;;;;;;;0.00;0.00;;;;;;;;2773055;51;8799;-70
2021/10/12 09:21:29;;;;;;;;;0.00;0.00;;;;;;;;2773044;51;8771;-73
2021/10/12 09:24:08;;;;;;;;;0.00;0.00;;;;;;;;2773149;51;8771;-72
2021/10/12 09:26:40;;;;;;;;;0.00;0.00;;;;;;;;2773806;51;8774;-71
2021/10/12 09:29:48;;;;;;;;;0.00;0.00;;;;;;;;2774196;51;8759;-73
2021/10/12 09:32:06;;;;;;;;;2.00;0.00;;;;;;;;2773635;51;8767;-70
2021/10/12 09:34:32;;;;;;;;;0.00;0.00;;;;;;;;2774992;51;8768;-71
2021/10/12 09:36:59;;;;;;;;;0.00;0.00;;;;;;;;2780240;51;8870;-71
2021/10/12 09:39:32;;;;;;;;;0.20;0.20;;;;;;;;2779803;51;9707;-72
2021/10/12 09:41:59;;;;;;;;;0.00;0.00;;;;;;;;2780331;51;8965;-73
2021/10/12 09:44:24;;;;;;;;;0.00;0.00;;;;;;;;2779889;51;8787;-72
2021/10/12 09:46:51;;;;;;;;;0.50;0.25;;;;;;;;2780119;51;8772;-73
2021/10/12 09:49:17;;;;;;;;;0.80;0.80;;;;;;;;2779755;51;9456;-72
2021/10/12 09:51:43;;;;;;;;;1.00;0.00;;;;;;;;2779970;51;8776;-72
2021/10/12 09:54:21;;;;;;;;;0.00;0.00;;;;;;;;2779620;51;8775;-73
2021/10/12 09:56:48;;;;;;;;;0.00;0.00;;;;;;;;2780322;51;8771;-72
2021/10/12 09:59:14;;;;;;;;;1.00;1.00;;;;;;;;2779912;51;8803;-76
2021/10/12 10:01:42;;;;;;;;;1.00;1.00;;;;;;;;2779862;51;8772;-68
2021/10/12 10:04:10;;;;;;;;;0.00;0.00;;;;;;;;2780220;51;8886;-68
2021/10/12 10:06:36;;;;;;;;;1.00;1.00;;;;;;;;2780244;51;8854;-67
2021/10/12 10:09:02;;;;;;;;;0.00;0.00;;;;;;;;2779645;51;8764;-69
2021/10/12 10:11:29;;;;;;;;;1.00;0.00;;;;;;;;2779772;51;8820;-67
2021/10/12 10:13:57;;;;;;;;;1.00;1.00;;;;;;;;2780249;51;8764;-70
2021/10/12 10:16:23;;;;;;;;;0.60;0.00;;;;;;;;2779631;51;8901;-68
2021/10/12 10:18:49;;;;;;;;;0.00;0.00;;;;;;;;2779538;51;8804;-68
2021/10/12 10:21:14;;;;;;;;;2.00;0.00;;;;;;;;2779665;51;8893;-70
2021/10/12 10:23:48;;;;;;;;;0.00;0.00;;;;;;;;2779593;51;9474;-68
2021/10/12 10:26:23;;;;;;;;;0.80;0.60;;;;;;;;2779734;51;8779;-69
2021/10/12 10:28:49;;;;;;;;;0.00;0.00;;;;;;;;2779562;51;8784;-72
2021/10/12 10:31:15;;;;;;;;;0.00;0.00;;;;;;;;2780121;51;8772;-68
2021/10/12 10:33:40;;;;;;;;;1.00;0.25;;;;;;;;2780104;51;11027;-71
2021/10/12 10:36:08;;;;;;;;;1.00;0.00;;;;;;;;2774881;51;8782;-68
2021/10/12 10:38:42;;;;;;;;;0.00;0.00;;;;;;;;2772398;51;8799;-70
2021/10/12 10:41:10;;;;;;;;;0.00;0.00;;;;;;;;2774163;51;8787;-68
2021/10/12 10:43:48;;;;;;;;;0.00;0.00;;;;;;;;2773897;51;8782;-67
2021/10/12 10:46:32;;;;;;;;;0.40;0.00;;;;;;;;2773240;51;8897;-68
2021/10/12 10:49:08;;;;;;;;;0.00;0.00;;;;;;;;2772263;51;8807;-71
2021/10/12 10:51:57;;;;;;;;;0.00;0.00;;;;;;;;2773653;51;8774;-69
2021/10/12 10:54:43;;;;;;;;;0.00;0.00;;;;;;;;2775222;51;8771;-70
2021/10/12 10:57:13;;;;;;;;;0.00;0.00;;;;;;;;2774125;51;8873;-70
2021/10/12 10:59:38;;;;;;;;;0.00;0.00;;;;;;;;2773386;51;8892;-71
2021/10/12 11:02:22;;;;;;;;;1.75;0.00;;;;;;;;2773402;51;8873;-71
2021/10/12 11:04:49;;;;;;;;;1.00;0.80;;;;;;;;2773362;51;8873;-71
2021/10/12 11:07:32;;;;;;;;;1.80;0.00;;;;;;;;2773757;51;8767;-75
2021/10/12 11:09:58;;;;;;;;;0.60;0.60;;;;;;;;2773772;51;9416;-73
2021/10/12 11:12:28;;;;;;;;;0.00;0.00;;;;;;;;2773634;51;8798;-72
2021/10/12 11:14:54;;;;;;;;;0.00;0.00;;;;;;;;2773325;51;8881;-70
2021/10/12 11:17:20;;;;;;;;;1.00;0.00;;;;;;;;2773586;51;8763;-68
2021/10/12 11:19:55;;;;;;;;;2.50;0.75;;;;;;;;2773461;51;8791;-69
2021/10/12 11:22:21;;;;;;;;;0.00;0.00;;;;;;;;2773513;51;8774;-69
2021/10/12 11:24:47;;;;;;;;;0.00;0.00;;;;;;;;2773370;51;8763;-69
2021/10/12 11:27:13;;;;;;;;;0.00;0.00;;;;;;;;2773651;51;8763;-69
2021/10/12 11:29:39;;;;;;;;;0.00;0.00;;;;;;;;2773288;51;8766;-68
2021/10/12 11:32:05;;;;;;;;;0.00;0.00;;;;;;;;2773411;51;9407;-68
2021/10/12 11:34:32;;;;;;;;;0.00;0.00;;;;;;;;2774585;51;8764;-71
2021/10/12 11:37:07;;;;;;;;;0.00;0.00;;;;;;;;2779636;51;9223;-69
2021/10/12 11:39:34;;;;;;;;;0.00;0.00;;;;;;;;2778730;51;8796;-70
2021/10/12 11:42:00;;;;;;;;;0.60;0.00;;;;;;;;2779294;51;9476;-68
2021/10/12 11:44:25;;;;;;;;;0.20;0.20;;;;;;;;2778623;51;8894;-72
2021/10/12 11:46:54;;;;;;;;;0.75;0.75;;;;;;;;2779025;51;8860;-70
2021/10/12 11:49:21;;;;;;;;;0.80;0.00;;;;;;;;2779614;51;8752;-66
2021/10/12 11:51:47;;;;;;;;;0.00;0.00;;;;;;;;2779422;51;8772;-68
2021/10/12 11:54:13;;;;;;;;;1.00;0.40;;;;;;;;2779310;51;8772;-67
2021/10/12 11:56:39;;;;;;;;;0.00;0.00;;;;;;;;2776364;51;8824;-61
2021/10/12 11:59:09;;;;;;;;;1.00;0.00;;;;;;;;2773882;51;8908;-62
2021/10/12 12:01:37;;;;;;;;;0.00;0.00;;;;;;;;2778333;51;8788;-64
2021/10/12 12:04:03;;;;;;;;;0.20;0.20;;;;;;;;2773419;51;8755;-64
2021/10/12 12:06:31;;;;;;;;;0.00;0.00;;;;;;;;2775225;51;8776;-64
2021/10/12 12:08:59;;;;;;;;;0.00;0.00;;;;;;;;2773749;51;8803;-64
2021/10/12 12:11:25;;;;;;;;;1.00;0.00;;;;;;;;2775411;51;9425;-65
2021/10/12 12:13:53;;;;;;;;;0.00;0.00;;;;;;;;2775754;51;8791;-65
2021/10/12 12:16:19;;;;;;;;;0.00;0.00;;;;;;;;2775511;51;8798;-64
2021/10/12 12:18:45;;;;;;;;;0.00;0.00;;;;;;;;2775448;51;8792;-64
2021/10/12 12:21:10;;;;;;;;;0.00;0.00;;;;;;;;2775318;51;8803;-65
2021/10/12 12:23:36;;;;;;;;;0.00;0.00;;;;;;;;2775513;51;8891;-66
2021/10/12 12:26:03;;;;;;;;;2.75;1.00;;;;;;;;2775583;51;8780;-65
2021/10/12 12:28:28;;;;;;;;;0.00;0.00;;;;;;;;2775355;51;8768;-63
2021/10/12 12:30:55;;;;;;;;;0.00;0.00;;;;;;;;2775461;51;8890;-64
2021/10/12 12:33:21;;;;;;;;;1.00;1.00;;;;;;;;2775735;51;8780;-65
2021/10/12 12:35:48;;;;;;;;;0.00;0.00;;;;;;;;2775319;51;8895;-64
2021/10/12 12:38:24;;;;;;;;;0.00;0.00;;;;;;;;2775321;51;8889;-65
2021/10/12 12:40:51;;;;;;;;;0.00;0.00;;;;;;;;2775217;51;9458;-64
2021/10/12 12:43:19;;;;;;;;;0.00;0.00;;;;;;;;2775464;51;8851;-65
2021/10/12 12:45:45;;;;;;;;;0.00;0.00;;;;;;;;2775286;51;8795;-64
2021/10/12 12:48:11;;;;;;;;;1.50;1.00;;;;;;;;2775239;51;8783;-65
2021/10/12 12:50:37;;;;;;;;;0.50;0.50;;;;;;;;2775415;51;11338;-65
2021/10/12 12:53:06;;;;;;;;;0.00;0.00;;;;;;;;2774979;51;8792;-62
2021/10/12 12:55:33;;;;;;;;;0.00;0.00;;;;;;;;2775265;51;8775;-65
2021/10/12 12:57:59;;;;;;;;;0.00;0.00;;;;;;;;2775172;51;8907;-65
2021/10/12 13:00:25;;;;;;;;;0.00;0.00;;;;;;;;2775152;51;8771;-65
2021/10/12 13:02:54;;;;;;;;;0.00;0.00;;;;;;;;2775272;51;8882;-67
2021/10/12 13:05:20;;;;;;;;;0.00;0.00;;;;;;;;2775169;51;8768;-65
2021/10/12 13:07:45;;;;;;;;;0.00;0.00;;;;;;;;2775300;51;8778;-67
2021/10/12 13:10:11;;;;;;;;;0.00;0.00;;;;;;;;2775139;51;8777;-67
2021/10/12 13:12:37;;;;;;;;;0.50;0.00;;;;;;;;2775271;51;8794;-66
2021/10/12 13:15:03;;;;;;;;;0.00;0.00;;;;;;;;2775452;51;8772;-66
2021/10/12 13:17:28;;;;;;;;;1.00;1.00;;;;;;;;2775173;51;11459;-66
2021/10/12 13:19:54;;;;;;;;;0.00;0.00;;;;;;;;2775308;51;8805;-67
2021/10/12 13:22:20;;;;;;;;;0.00;0.00;;;;;;;;2775160;51;8833;-65
2021/10/12 13:24:46;;;;;;;;;0.20;0.20;;;;;;;;2775110;51;8860;-65
2021/10/12 13:27:13;;;;;;;;;0.00;0.00;;;;;;;;2775502;51;8768;-67
2021/10/12 13:29:38;;;;;;;;;2.00;1.00;;;;;;;;2774755;51;8896;-66
2021/10/12 13:32:05;;;;;;;;;0.00;0.00;;;;;;;;2775199;51;8782;-65
2021/10/12 13:34:30;;;;;;;;;0.00;0.00;;;;;;;;2775332;51;8760;-67
2021/10/12 13:36:57;;;;;;;;;0.00;0.00;;;;;;;;2774581;51;8763;-64
2021/10/12 13:39:22;;;;;;;;;0.00;0.00;;;;;;;;2774893;51;8907;-64
2021/10/12 13:41:49;;;;;;;;;0.00;0.00;;;;;;;;2774898;51;8921;-64
2021/10/12 13:44:16;;;;;;;;;0.40;0.40;;;;;;;;2775186;51;8775;-66
2021/10/12 13:46:42;;;;;;;;;1.00;1.00;;;;;;;;2775112;51;8780;-65
2021/10/12 13:49:07;;;;;;;;;0.00;0.00;;;;;;;;2774888;51;8790;-63
2021/10/12 13:51:33;;;;;;;;;0.00;0.00;;;;;;;;2775129;51;8776;-66
2021/10/12 13:53:58;;;;;;;;;0.00;0.00;;;;;;;;2774945;51;8779;-63
2021/10/12 13:56:25;;;;;;;;;0.25;0.25;;;;;;;;2775063;51;9457;-62
2021/10/12 13:58:51;;;;;;;;;1.00;0.00;;;;;;;;2774652;51;8786;-64
2021/10/12 14:01:17;;;;;;;;;0.00;0.00;;;;;;;;2772898;51;8777;-66
2021/10/12 14:03:43;;;;;;;;;0.00;0.00;;;;;;;;2772905;51;8787;-67
2021/10/12 14:06:08;;;;;;;;;1.25;0.50;;;;;;;;2772351;51;8767;-63
2021/10/12 14:08:34;;;;;;;;;1.00;1.00;;;;;;;;2772844;51;11438;-64
2021/10/12 14:11:00;;;;;;;;;0.00;0.00;;;;;;;;2772859;51;8778;-63
2021/10/12 14:13:26;;;;;;;;;0.00;0.00;;;;;;;;2773891;51;9529;-62
2021/10/12 14:15:52;;;;;;;;;0.00;0.00;;;;;;;;2775639;51;8752;-62
2021/10/12 14:18:19;;;;;;;;;0.00;0.00;;;;;;;;2779644;51;9479;-63
2021/10/12 14:20:45;;;;;;;;;0.00;0.00;;;;;;;;2780102;51;8787;-63
2021/10/12 14:23:11;;;;;;;;;1.50;1.00;;;;;;;;2780207;51;8772;-65
2021/10/12 14:25:38;;;;;;;;;1.00;1.00;;;;;;;;2779981;51;8769;-62
2021/10/12 14:28:04;;;;;;;;;1.00;1.00;;;;;;;;2779966;51;8764;-64
2021/10/12 14:30:29;;;;;;;;;1.00;1.00;;;;;;;;2779589;51;8772;-65
2021/10/12 14:32:55;;;;;;;;;1.00;1.00;;;;;;;;2779688;51;8780;-63
2021/10/12 14:35:20;;;;;;;;;0.50;0.50;;;;;;;;2780213;51;8779;-65
2021/10/12 14:37:46;;;;;;;;;0.00;0.00;;;;;;;;2779670;51;8792;-65
2021/10/12 14:40:12;;;;;;;;;0.00;0.00;;;;;;;;2779507;51;8894;-64
2021/10/12 14:42:38;;;;;;;;;1.00;1.00;;;;;;;;2779518;51;8772;-63
2021/10/12 14:45:04;;;;;;;;;1.25;1.25;;;;;;;;2779739;51;8764;-64
2021/10/12 14:47:31;;;;;;;;;0.00;0.00;;;;;;;;2779777;51;10791;-66
2021/10/12 14:49:57;;;;;;;;;0.20;0.20;;;;;;;;2779415;51;8886;-64
2021/10/12 14:52:23;;;;;;;;;1.80;0.80;;;;;;;;2779220;51;8768;-64
2021/10/12 14:54:48;;;;;;;;;1.00;1.00;;;;;;;;2779475;51;8772;-64
2021/10/12 14:57:14;;;;;;;;;0.75;0.75;;;;;;;;2779556;51;9544;-64